« Back
NWS Peachtree City, Ga » Text Product » ATL Terminal Aerodrome Forecast


Printer-friendly Version
Current Version              Previous Versions:   1  2  3  4  5  6  7  8  9  

Terminal Aerodrome Forecast

492
FTUS42 KFFC 300700 AAA
TAFATL
TAF AMD
KATL 300758Z 3008/0112 06005KT 6SM -DZ BR BKN006
      TEMPO 3009/3012 4SM -DZ BR BKN004
     FM301400 04004KT P6SM SCT010
     FM301800 02004KT P6SM FEW040
     FM302200 03003KT P6SM FEW100
     FM010400 VRB02KT P6SM FEW250=

USA.gov is the U.S. government's official web portal to all federal, state and local government web resources and services.